sensor_id;sensor_type;location;lat;lon;timestamp;temperature;humidity
16477;DHT22;8349;50.928;6.376;2023-05-10T00:01:13;13.30;99.90
16477;DHT22;8349;50.928;6.376;2023-05-10T00:03:40;13.30;99.90
16477;DHT22;8349;50.928;6.376;2023-05-10T00:06:07;13.30;99.90
16477;DHT22;8349;50.928;6.376;2023-05-10T00:08:33;13.30;99.90
16477;DHT22;8349;50.928;6.376;2023-05-10T00:11:00;13.30;99.90
16477;DHT22;8349;50.928;6.376;2023-05-10T00:13:28;13.30;99.90
16477;DHT22;8349;50.928;6.376;2023-05-10T00:15:55;13.30;99.90
16477;DHT22;8349;50.928;6.376;2023-05-10T00:18:21;13.30;99.90
16477;DHT22;8349;50.928;6.376;2023-05-10T00:20:48;13.30;99.90
16477;DHT22;8349;50.928;6.376;2023-05-10T00:23:15;13.30;99.90
16477;DHT22;8349;50.928;6.376;2023-05-10T00:25:42;13.30;99.90
16477;DHT22;8349;50.928;6.376;2023-05-10T00:28:09;13.30;99.90
16477;DHT22;8349;50.928;6.376;2023-05-10T00:30:38;13.20;99.90
16477;DHT22;8349;50.928;6.376;2023-05-10T00:33:05;13.20;99.90
16477;DHT22;8349;50.928;6.376;2023-05-10T00:35:32;13.20;99.90
16477;DHT22;8349;50.928;6.376;2023-05-10T00:37:59;13.20;99.90
16477;DHT22;8349;50.928;6.376;2023-05-10T00:40:26;13.20;99.90
16477;DHT22;8349;50.928;6.376;2023-05-10T00:42:58;13.20;99.90
16477;DHT22;8349;50.928;6.376;2023-05-10T00:45:25;13.20;99.90
16477;DHT22;8349;50.928;6.376;2023-05-10T00:47:54;13.20;99.90
16477;DHT22;8349;50.928;6.376;2023-05-10T00:50:21;13.20;99.90
16477;DHT22;8349;50.928;6.376;2023-05-10T00:52:48;13.20;99.90
16477;DHT22;8349;50.928;6.376;2023-05-10T00:57:42;13.20;99.90
16477;DHT22;8349;50.928;6.376;2023-05-10T01:00:09;13.20;99.90
16477;DHT22;8349;50.928;6.376;2023-05-10T01:02:36;13.20;99.90
16477;DHT22;8349;50.928;6.376;2023-05-10T01:05:05;13.20;99.90
16477;DHT22;8349;50.928;6.376;2023-05-10T01:07:32;13.20;99.90
16477;DHT22;8349;50.928;6.376;2023-05-10T01:09:59;13.20;99.90
16477;DHT22;8349;50.928;6.376;2023-05-10T01:12:25;13.20;99.90
16477;DHT22;8349;50.928;6.376;2023-05-10T01:14:53;13.20;99.90
16477;DHT22;8349;50.928;6.376;2023-05-10T01:17:20;13.20;99.90
16477;DHT22;8349;50.928;6.376;2023-05-10T01:19:48;13.20;99.90
16477;DHT22;8349;50.928;6.376;2023-05-10T01:22:22;13.20;99.90
16477;DHT22;8349;50.928;6.376;2023-05-10T01:25:06;13.20;99.90
16477;DHT22;8349;50.928;6.376;2023-05-10T01:30:49;13.30;99.90
16477;DHT22;8349;50.928;6.376;2023-05-10T01:33:19;13.30;99.90
16477;DHT22;8349;50.928;6.376;2023-05-10T01:35:47;13.30;99.90
16477;DHT22;8349;50.928;6.376;2023-05-10T01:38:20;13.20;99.90
16477;DHT22;8349;50.928;6.376;2023-05-10T01:40:52;13.20;99.90
16477;DHT22;8349;50.928;6.376;2023-05-10T01:43:21;13.20;99.90
16477;DHT22;8349;50.928;6.376;2023-05-10T01:45:54;13.00;99.90
16477;DHT22;8349;50.928;6.376;2023-05-10T01:48:24;13.00;99.90
16477;DHT22;8349;50.928;6.376;2023-05-10T01:50:52;12.90;99.90
16477;DHT22;8349;50.928;6.376;2023-05-10T01:53:19;12.90;99.90
16477;DHT22;8349;50.928;6.376;2023-05-10T01:55:49;12.90;99.90
16477;DHT22;8349;50.928;6.376;2023-05-10T01:58:19;13.00;99.90
16477;DHT22;8349;50.928;6.376;2023-05-10T02:03:13;13.00;99.90
16477;DHT22;8349;50.928;6.376;2023-05-10T02:05:42;13.00;99.90
16477;DHT22;8349;50.928;6.376;2023-05-10T02:08:10;13.00;99.90
16477;DHT22;8349;50.928;6.376;2023-05-10T02:10:38;13.00;99.90
16477;DHT22;8349;50.928;6.376;2023-05-10T02:13:07;13.00;99.90
16477;DHT22;8349;50.928;6.376;2023-05-10T02:15:34;13.00;99.90
16477;DHT22;8349;50.928;6.376;2023-05-10T02:18:02;13.00;99.90
16477;DHT22;8349;50.928;6.376;2023-05-10T02:20:29;13.10;99.90
16477;DHT22;8349;50.928;6.376;2023-05-10T02:22:59;13.10;99.90
16477;DHT22;8349;50.928;6.376;2023-05-10T02:25:26;13.10;99.90
16477;DHT22;8349;50.928;6.376;2023-05-10T02:27:54;13.10;99.90
16477;DHT22;8349;50.928;6.376;2023-05-10T02:30:21;13.10;99.90
16477;DHT22;8349;50.928;6.376;2023-05-10T02:32:49;13.10;99.90
16477;DHT22;8349;50.928;6.376;2023-05-10T02:35:16;13.10;99.90
16477;DHT22;8349;50.928;6.376;2023-05-10T02:37:44;13.10;99.90
16477;DHT22;8349;50.928;6.376;2023-05-10T02:40:13;13.10;99.90
16477;DHT22;8349;50.928;6.376;2023-05-10T02:42:42;13.10;99.90
16477;DHT22;8349;50.928;6.376;2023-05-10T02:45:11;13.10;99.90
16477;DHT22;8349;50.928;6.376;2023-05-10T02:47:38;13.10;99.90
16477;DHT22;8349;50.928;6.376;2023-05-10T02:50:05;13.10;99.90
16477;DHT22;8349;50.928;6.376;2023-05-10T02:52:37;13.10;99.90
16477;DHT22;8349;50.928;6.376;2023-05-10T02:55:05;13.20;99.90
16477;DHT22;8349;50.928;6.376;2023-05-10T03:00:02;13.10;99.90
16477;DHT22;8349;50.928;6.376;2023-05-10T03:02:29;13.20;99.90
16477;DHT22;8349;50.928;6.376;2023-05-10T03:04:56;13.10;99.90
16477;DHT22;8349;50.928;6.376;2023-05-10T03:07:23;13.20;99.90
16477;DHT22;8349;50.928;6.376;2023-05-10T03:09:50;13.20;99.90
16477;DHT22;8349;50.928;6.376;2023-05-10T03:12:19;13.10;99.90
16477;DHT22;8349;50.928;6.376;2023-05-10T03:14:52;13.10;99.90
16477;DHT22;8349;50.928;6.376;2023-05-10T03:17:22;13.00;99.90
16477;DHT22;8349;50.928;6.376;2023-05-10T03:19:52;13.00;99.90
16477;DHT22;8349;50.928;6.376;2023-05-10T03:22:21;13.10;99.90
16477;DHT22;8349;50.928;6.376;2023-05-10T03:24:50;13.00;99.90
16477;DHT22;8349;50.928;6.376;2023-05-10T03:27:18;13.00;99.90
16477;DHT22;8349;50.928;6.376;2023-05-10T03:29:45;13.00;99.90
16477;DHT22;8349;50.928;6.376;2023-05-10T03:32:13;13.00;99.90
16477;DHT22;8349;50.928;6.376;2023-05-10T03:34:42;13.00;99.90
16477;DHT22;8349;50.928;6.376;2023-05-10T03:37:09;13.00;99.90
16477;DHT22;8349;50.928;6.376;2023-05-10T03:39:36;13.00;99.90
16477;DHT22;8349;50.928;6.376;2023-05-10T03:42:05;13.00;99.90
16477;DHT22;8349;50.928;6.376;2023-05-10T03:44:32;13.00;99.90
16477;DHT22;8349;50.928;6.376;2023-05-10T03:46:59;12.90;99.90
16477;DHT22;8349;50.928;6.376;2023-05-10T03:49:26;12.90;99.90
16477;DHT22;8349;50.928;6.376;2023-05-10T03:51:54;12.90;99.90
16477;DHT22;8349;50.928;6.376;2023-05-10T03:56:48;12.80;99.90
16477;DHT22;8349;50.928;6.376;2023-05-10T03:59:17;12.90;99.90
16477;DHT22;8349;50.928;6.376;2023-05-10T04:01:44;12.90;99.90
16477;DHT22;8349;50.928;6.376;2023-05-10T04:04:10;12.80;99.90
16477;DHT22;8349;50.928;6.376;2023-05-10T04:06:37;12.90;99.90
16477;DHT22;8349;50.928;6.376;2023-05-10T04:09:06;12.80;99.90
16477;DHT22;8349;50.928;6.376;2023-05-10T04:11:33;12.80;99.90
16477;DHT22;8349;50.928;6.376;2023-05-10T04:14:00;12.80;99.90
16477;DHT22;8349;50.928;6.376;2023-05-10T04:16:27;12.80;99.90
16477;DHT22;8349;50.928;6.376;2023-05-10T04:21:21;12.80;99.90
16477;DHT22;8349;50.928;6.376;2023-05-10T04:23:48;12.80;99.90
16477;DHT22;8349;50.928;6.376;2023-05-10T04:26:16;12.80;99.90
16477;DHT22;8349;50.928;6.376;2023-05-10T04:28:43;12.80;99.90
16477;DHT22;8349;50.928;6.376;2023-05-10T04:31:09;12.80;99.90
16477;DHT22;8349;50.928;6.376;2023-05-10T04:33:36;12.70;99.90
16477;DHT22;8349;50.928;6.376;2023-05-10T04:36:03;12.80;99.90
16477;DHT22;8349;50.928;6.376;2023-05-10T04:38:30;12.70;99.90
16477;DHT22;8349;50.928;6.376;2023-05-10T04:41:03;12.60;99.90
16477;DHT22;8349;50.928;6.376;2023-05-10T04:43:32;12.70;99.90
16477;DHT22;8349;50.928;6.376;2023-05-10T04:45:58;12.70;99.90
16477;DHT22;8349;50.928;6.376;2023-05-10T04:48:25;12.70;99.90
16477;DHT22;8349;50.928;6.376;2023-05-10T04:50:52;12.60;99.90
16477;DHT22;8349;50.928;6.376;2023-05-10T04:53:19;12.70;99.90
16477;DHT22;8349;50.928;6.376;2023-05-10T04:55:45;12.70;99.90
16477;DHT22;8349;50.928;6.376;2023-05-10T04:58:13;12.80;99.90
16477;DHT22;8349;50.928;6.376;2023-05-10T05:00:41;12.80;99.90
16477;DHT22;8349;50.928;6.376;2023-05-10T05:03:08;12.70;99.90
16477;DHT22;8349;50.928;6.376;2023-05-10T05:05:35;12.70;99.90
16477;DHT22;8349;50.928;6.376;2023-05-10T05:08:01;12.70;99.90
16477;DHT22;8349;50.928;6.376;2023-05-10T05:10:28;12.70;99.90
16477;DHT22;8349;50.928;6.376;2023-05-10T05:12:55;12.80;99.90
16477;DHT22;8349;50.928;6.376;2023-05-10T05:15:22;12.80;99.90
16477;DHT22;8349;50.928;6.376;2023-05-10T05:17:50;12.80;99.90
16477;DHT22;8349;50.928;6.376;2023-05-10T05:20:17;12.80;99.90
16477;DHT22;8349;50.928;6.376;2023-05-10T05:22:44;12.90;99.90
16477;DHT22;8349;50.928;6.376;2023-05-10T05:25:11;12.80;99.90
16477;DHT22;8349;50.928;6.376;2023-05-10T05:27:38;12.90;99.90
16477;DHT22;8349;50.928;6.376;2023-05-10T05:30:05;12.90;99.90
16477;DHT22;8349;50.928;6.376;2023-05-10T05:32:32;12.90;99.90
16477;DHT22;8349;50.928;6.376;2023-05-10T05:35:00;12.90;99.90
16477;DHT22;8349;50.928;6.376;2023-05-10T05:37:27;12.90;99.90
16477;DHT22;8349;50.928;6.376;2023-05-10T05:39:54;12.90;99.90
16477;DHT22;8349;50.928;6.376;2023-05-10T05:42:21;12.90;99.90
16477;DHT22;8349;50.928;6.376;2023-05-10T05:44:47;13.00;99.90
16477;DHT22;8349;50.928;6.376;2023-05-10T05:47:14;13.00;99.90
16477;DHT22;8349;50.928;6.376;2023-05-10T05:49:41;13.00;99.90
16477;DHT22;8349;50.928;6.376;2023-05-10T05:52:12;13.00;99.90
16477;DHT22;8349;50.928;6.376;2023-05-10T05:54:39;13.00;99.90
16477;DHT22;8349;50.928;6.376;2023-05-10T05:57:05;13.00;99.90
16477;DHT22;8349;50.928;6.376;2023-05-10T05:59:32;13.00;99.90
16477;DHT22;8349;50.928;6.376;2023-05-10T06:01:59;13.00;99.90
16477;DHT22;8349;50.928;6.376;2023-05-10T06:04:26;12.90;99.90
16477;DHT22;8349;50.928;6.376;2023-05-10T06:06:53;12.90;99.90
16477;DHT22;8349;50.928;6.376;2023-05-10T06:09:21;12.90;99.90
16477;DHT22;8349;50.928;6.376;2023-05-10T06:11:49;12.90;99.90
16477;DHT22;8349;50.928;6.376;2023-05-10T06:14:15;12.90;99.90
16477;DHT22;8349;50.928;6.376;2023-05-10T06:16:42;12.90;99.90
16477;DHT22;8349;50.928;6.376;2023-05-10T06:19:09;12.90;99.90
16477;DHT22;8349;50.928;6.376;2023-05-10T06:21:36;12.90;99.90
16477;DHT22;8349;50.928;6.376;2023-05-10T06:24:02;12.90;99.90
16477;DHT22;8349;50.928;6.376;2023-05-10T06:26:31;12.90;99.90
16477;DHT22;8349;50.928;6.376;2023-05-10T06:28:58;12.90;99.90
16477;DHT22;8349;50.928;6.376;2023-05-10T06:31:25;13.00;99.90
16477;DHT22;8349;50.928;6.376;2023-05-10T06:33:51;13.00;99.90
16477;DHT22;8349;50.928;6.376;2023-05-10T06:36:18;13.10;99.90
16477;DHT22;8349;50.928;6.376;2023-05-10T06:38:45;13.00;99.90
16477;DHT22;8349;50.928;6.376;2023-05-10T06:41:12;13.10;99.90
16477;DHT22;8349;50.928;6.376;2023-05-10T06:43:40;13.00;99.90
16477;DHT22;8349;50.928;6.376;2023-05-10T06:46:08;13.00;99.90
16477;DHT22;8349;50.928;6.376;2023-05-10T06:48:35;13.00;99.90
16477;DHT22;8349;50.928;6.376;2023-05-10T06:51:02;13.00;99.90
16477;DHT22;8349;50.928;6.376;2023-05-10T06:53:28;13.00;99.90
16477;DHT22;8349;50.928;6.376;2023-05-10T06:55:55;13.10;99.90
16477;DHT22;8349;50.928;6.376;2023-05-10T06:58:22;13.10;99.90
16477;DHT22;8349;50.928;6.376;2023-05-10T07:00:50;13.10;99.90
16477;DHT22;8349;50.928;6.376;2023-05-10T07:03:17;13.20;99.90
16477;DHT22;8349;50.928;6.376;2023-05-10T07:05:44;13.30;99.90
16477;DHT22;8349;50.928;6.376;2023-05-10T07:08:11;13.40;99.90
16477;DHT22;8349;50.928;6.376;2023-05-10T07:10:38;13.40;99.90
16477;DHT22;8349;50.928;6.376;2023-05-10T07:13:05;13.50;99.90
16477;DHT22;8349;50.928;6.376;2023-05-10T07:15:32;13.50;99.90
16477;DHT22;8349;50.928;6.376;2023-05-10T07:18:00;13.40;99.90
16477;DHT22;8349;50.928;6.376;2023-05-10T07:20:27;13.40;99.90
16477;DHT22;8349;50.928;6.376;2023-05-10T07:22:54;13.40;99.90
16477;DHT22;8349;50.928;6.376;2023-05-10T07:25:20;13.30;99.90
16477;DHT22;8349;50.928;6.376;2023-05-10T07:27:47;13.40;99.90
16477;DHT22;8349;50.928;6.376;2023-05-10T07:30:14;13.40;99.90
16477;DHT22;8349;50.928;6.376;2023-05-10T07:32:41;13.40;99.90
16477;DHT22;8349;50.928;6.376;2023-05-10T07:35:09;13.50;99.90
16477;DHT22;8349;50.928;6.376;2023-05-10T07:37:36;13.50;99.90
16477;DHT22;8349;50.928;6.376;2023-05-10T07:40:03;13.70;99.90
16477;DHT22;8349;50.928;6.376;2023-05-10T07:42:30;13.80;99.90
16477;DHT22;8349;50.928;6.376;2023-05-10T07:44:57;13.80;99.90
16477;DHT22;8349;50.928;6.376;2023-05-10T07:47:24;14.00;99.90
16477;DHT22;8349;50.928;6.376;2023-05-10T07:49:51;14.10;99.90
16477;DHT22;8349;50.928;6.376;2023-05-10T07:52:19;14.20;99.90
16477;DHT22;8349;50.928;6.376;2023-05-10T07:54:46;14.40;99.90
16477;DHT22;8349;50.928;6.376;2023-05-10T07:57:13;14.40;99.90
16477;DHT22;8349;50.928;6.376;2023-05-10T07:59:43;14.40;99.90
16477;DHT22;8349;50.928;6.376;2023-05-10T08:02:09;14.40;99.90
16477;DHT22;8349;50.928;6.376;2023-05-10T08:04:36;14.20;99.90
16477;DHT22;8349;50.928;6.376;2023-05-10T08:07:03;14.10;99.90
16477;DHT22;8349;50.928;6.376;2023-05-10T08:09:31;14.00;99.90
16477;DHT22;8349;50.928;6.376;2023-05-10T08:11:58;14.00;99.90
16477;DHT22;8349;50.928;6.376;2023-05-10T08:14:25;13.90;99.90
16477;DHT22;8349;50.928;6.376;2023-05-10T08:16:52;13.80;99.90
16477;DHT22;8349;50.928;6.376;2023-05-10T08:19:19;13.80;99.90
16477;DHT22;8349;50.928;6.376;2023-05-10T08:21:46;13.80;99.90
16477;DHT22;8349;50.928;6.376;2023-05-10T08:24:13;13.90;99.90
16477;DHT22;8349;50.928;6.376;2023-05-10T08:26:41;14.00;99.90
16477;DHT22;8349;50.928;6.376;2023-05-10T08:29:08;13.80;99.90
16477;DHT22;8349;50.928;6.376;2023-05-10T08:31:34;14.00;99.90
16477;DHT22;8349;50.928;6.376;2023-05-10T08:34:01;14.20;99.90
16477;DHT22;8349;50.928;6.376;2023-05-10T08:36:27;14.20;99.90
16477;DHT22;8349;50.928;6.376;2023-05-10T08:38:54;14.30;99.90
16477;DHT22;8349;50.928;6.376;2023-05-10T08:41:21;14.50;99.90
16477;DHT22;8349;50.928;6.376;2023-05-10T08:43:51;14.70;99.90
16477;DHT22;8349;50.928;6.376;2023-05-10T08:46:18;14.70;99.90
16477;DHT22;8349;50.928;6.376;2023-05-10T08:48:46;14.50;99.90
16477;DHT22;8349;50.928;6.376;2023-05-10T08:51:14;14.40;99.90
16477;DHT22;8349;50.928;6.376;2023-05-10T08:53:41;14.30;99.90
16477;DHT22;8349;50.928;6.376;2023-05-10T08:56:08;14.30;99.90
16477;DHT22;8349;50.928;6.376;2023-05-10T08:58:35;14.30;99.90
16477;DHT22;8349;50.928;6.376;2023-05-10T09:01:04;14.20;99.90
16477;DHT22;8349;50.928;6.376;2023-05-10T09:03:31;14.20;99.90
16477;DHT22;8349;50.928;6.376;2023-05-10T09:05:58;14.10;99.90
16477;DHT22;8349;50.928;6.376;2023-05-10T09:08:25;14.10;99.90
16477;DHT22;8349;50.928;6.376;2023-05-10T09:10:52;14.20;99.90
16477;DHT22;8349;50.928;6.376;2023-05-10T09:13:19;14.10;99.90
16477;DHT22;8349;50.928;6.376;2023-05-10T09:15:47;14.10;99.90
16477;DHT22;8349;50.928;6.376;2023-05-10T09:18:16;14.10;99.90
16477;DHT22;8349;50.928;6.376;2023-05-10T09:20:42;14.10;99.90
16477;DHT22;8349;50.928;6.376;2023-05-10T09:23:10;14.10;99.90
16477;DHT22;8349;50.928;6.376;2023-05-10T09:25:37;14.10;99.90
16477;DHT22;8349;50.928;6.376;2023-05-10T09:28:05;14.30;99.90
16477;DHT22;8349;50.928;6.376;2023-05-10T09:30:32;14.50;99.90
16477;DHT22;8349;50.928;6.376;2023-05-10T09:35:28;14.40;99.90
16477;DHT22;8349;50.928;6.376;2023-05-10T09:37:56;14.30;99.90
16477;DHT22;8349;50.928;6.376;2023-05-10T09:40:23;14.30;99.90
16477;DHT22;8349;50.928;6.376;2023-05-10T09:42:51;14.50;99.90
16477;DHT22;8349;50.928;6.376;2023-05-10T09:45:18;14.40;99.90
16477;DHT22;8349;50.928;6.376;2023-05-10T09:47:45;14.40;99.90
16477;DHT22;8349;50.928;6.376;2023-05-10T09:50:12;14.50;99.90
16477;DHT22;8349;50.928;6.376;2023-05-10T09:52:47;14.40;99.90
16477;DHT22;8349;50.928;6.376;2023-05-10T09:55:14;14.50;99.90
16477;DHT22;8349;50.928;6.376;2023-05-10T09:57:41;14.60;99.90
16477;DHT22;8349;50.928;6.376;2023-05-10T10:00:08;14.60;99.90
16477;DHT22;8349;50.928;6.376;2023-05-10T10:02:41;14.70;99.90
16477;DHT22;8349;50.928;6.376;2023-05-10T10:05:08;14.50;99.90
16477;DHT22;8349;50.928;6.376;2023-05-10T10:07:35;14.30;99.90
16477;DHT22;8349;50.928;6.376;2023-05-10T10:10:03;14.70;99.90
16477;DHT22;8349;50.928;6.376;2023-05-10T10:12:30;14.80;99.90
16477;DHT22;8349;50.928;6.376;2023-05-10T10:14:57;15.00;99.90
16477;DHT22;8349;50.928;6.376;2023-05-10T10:17:26;15.00;99.90
16477;DHT22;8349;50.928;6.376;2023-05-10T10:19:55;14.90;99.90
16477;DHT22;8349;50.928;6.376;2023-05-10T10:22:22;15.00;99.90
16477;DHT22;8349;50.928;6.376;2023-05-10T10:24:49;15.00;99.90
16477;DHT22;8349;50.928;6.376;2023-05-10T10:27:21;14.90;99.90
16477;DHT22;8349;50.928;6.376;2023-05-10T10:29:52;14.90;99.90
16477;DHT22;8349;50.928;6.376;2023-05-10T10:32:26;14.80;99.90
16477;DHT22;8349;50.928;6.376;2023-05-10T10:34:54;14.60;99.90
16477;DHT22;8349;50.928;6.376;2023-05-10T10:37:22;14.30;99.90
16477;DHT22;8349;50.928;6.376;2023-05-10T10:39:48;14.40;99.90
16477;DHT22;8349;50.928;6.376;2023-05-10T10:42:26;14.30;99.90
16477;DHT22;8349;50.928;6.376;2023-05-10T10:45:13;14.50;99.90
16477;DHT22;8349;50.928;6.376;2023-05-10T10:47:39;14.50;99.90
16477;DHT22;8349;50.928;6.376;2023-05-10T10:50:08;14.50;99.90
16477;DHT22;8349;50.928;6.376;2023-05-10T10:52:38;14.70;99.90
16477;DHT22;8349;50.928;6.376;2023-05-10T10:55:05;14.80;99.90
16477;DHT22;8349;50.928;6.376;2023-05-10T10:57:42;14.80;99.90
16477;DHT22;8349;50.928;6.376;2023-05-10T11:00:22;14.80;99.90
16477;DHT22;8349;50.928;6.376;2023-05-10T11:02:50;14.80;99.90
16477;DHT22;8349;50.928;6.376;2023-05-10T11:05:24;14.80;99.90
16477;DHT22;8349;50.928;6.376;2023-05-10T11:07:51;14.80;99.90
16477;DHT22;8349;50.928;6.376;2023-05-10T11:10:19;15.00;99.90
16477;DHT22;8349;50.928;6.376;2023-05-10T11:13:00;14.80;99.90
16477;DHT22;8349;50.928;6.376;2023-05-10T11:15:30;14.80;99.90
16477;DHT22;8349;50.928;6.376;2023-05-10T11:17:57;15.00;99.90
16477;DHT22;8349;50.928;6.376;2023-05-10T11:20:26;15.10;99.90
16477;DHT22;8349;50.928;6.376;2023-05-10T11:23:10;15.20;99.90
16477;DHT22;8349;50.928;6.376;2023-05-10T11:25:40;15.30;99.90
16477;DHT22;8349;50.928;6.376;2023-05-10T11:28:08;15.40;99.90
16477;DHT22;8349;50.928;6.376;2023-05-10T11:30:35;15.60;99.90
16477;DHT22;8349;50.928;6.376;2023-05-10T11:33:02;16.00;99.90
16477;DHT22;8349;50.928;6.376;2023-05-10T11:35:29;16.80;99.90
16477;DHT22;8349;50.928;6.376;2023-05-10T11:37:56;17.40;99.90
16477;DHT22;8349;50.928;6.376;2023-05-10T11:42:50;17.70;99.90
16477;DHT22;8349;50.928;6.376;2023-05-10T11:45:18;17.70;99.90
16477;DHT22;8349;50.928;6.376;2023-05-10T11:47:48;17.90;99.90
16477;DHT22;8349;50.928;6.376;2023-05-10T11:50:15;18.90;99.90
16477;DHT22;8349;50.928;6.376;2023-05-10T11:52:42;19.50;99.90
16477;DHT22;8349;50.928;6.376;2023-05-10T11:55:09;20.70;99.90
16477;DHT22;8349;50.928;6.376;2023-05-10T11:57:35;21.40;99.90
16477;DHT22;8349;50.928;6.376;2023-05-10T12:00:04;21.30;99.90
16477;DHT22;8349;50.928;6.376;2023-05-10T12:02:34;20.60;99.90
16477;DHT22;8349;50.928;6.376;2023-05-10T12:05:01;20.40;99.90
16477;DHT22;8349;50.928;6.376;2023-05-10T12:07:29;19.60;99.90
16477;DHT22;8349;50.928;6.376;2023-05-10T12:10:02;18.90;99.90
16477;DHT22;8349;50.928;6.376;2023-05-10T12:12:34;18.50;99.90
16477;DHT22;8349;50.928;6.376;2023-05-10T12:15:01;18.60;99.90
16477;DHT22;8349;50.928;6.376;2023-05-10T12:17:29;18.20;99.90
16477;DHT22;8349;50.928;6.376;2023-05-10T12:19:59;18.50;99.90
16477;DHT22;8349;50.928;6.376;2023-05-10T12:22:38;19.10;99.90
16477;DHT22;8349;50.928;6.376;2023-05-10T12:25:06;18.60;99.90
16477;DHT22;8349;50.928;6.376;2023-05-10T12:27:33;18.90;99.90
16477;DHT22;8349;50.928;6.376;2023-05-10T12:29:59;19.20;99.90
16477;DHT22;8349;50.928;6.376;2023-05-10T12:32:37;20.40;99.90
16477;DHT22;8349;50.928;6.376;2023-05-10T12:35:05;21.20;99.90
16477;DHT22;8349;50.928;6.376;2023-05-10T12:37:32;21.70;99.90
16477;DHT22;8349;50.928;6.376;2023-05-10T12:40:01;22.10;99.90
16477;DHT22;8349;50.928;6.376;2023-05-10T12:42:30;21.50;99.90
16477;DHT22;8349;50.928;6.376;2023-05-10T12:44:56;21.80;99.90
16477;DHT22;8349;50.928;6.376;2023-05-10T12:47:23;22.30;99.90
16477;DHT22;8349;50.928;6.376;2023-05-10T12:49:50;22.10;99.90
16477;DHT22;8349;50.928;6.376;2023-05-10T12:52:18;22.40;99.90
16477;DHT22;8349;50.928;6.376;2023-05-10T12:54:45;23.30;99.90
16477;DHT22;8349;50.928;6.376;2023-05-10T12:57:12;23.00;99.90
16477;DHT22;8349;50.928;6.376;2023-05-10T12:59:39;20.80;99.90
16477;DHT22;8349;50.928;6.376;2023-05-10T13:02:06;20.00;99.90
16477;DHT22;8349;50.928;6.376;2023-05-10T13:04:32;19.80;99.90
16477;DHT22;8349;50.928;6.376;2023-05-10T13:06:59;18.00;99.90
16477;DHT22;8349;50.928;6.376;2023-05-10T13:09:27;20.80;99.90
16477;DHT22;8349;50.928;6.376;2023-05-10T13:11:54;21.60;99.90
16477;DHT22;8349;50.928;6.376;2023-05-10T13:14:21;21.60;99.90
16477;DHT22;8349;50.928;6.376;2023-05-10T13:16:48;21.50;99.90
16477;DHT22;8349;50.928;6.376;2023-05-10T13:19:15;20.90;99.90
16477;DHT22;8349;50.928;6.376;2023-05-10T13:21:41;21.30;99.90
16477;DHT22;8349;50.928;6.376;2023-05-10T13:24:09;20.80;99.90
16477;DHT22;8349;50.928;6.376;2023-05-10T13:26:40;20.20;99.90
16477;DHT22;8349;50.928;6.376;2023-05-10T13:29:07;19.50;99.90
16477;DHT22;8349;50.928;6.376;2023-05-10T13:31:35;19.60;99.90
16477;DHT22;8349;50.928;6.376;2023-05-10T13:34:02;19.20;99.90
16477;DHT22;8349;50.928;6.376;2023-05-10T13:36:28;19.00;99.90
16477;DHT22;8349;50.928;6.376;2023-05-10T13:38:55;18.80;99.90
16477;DHT22;8349;50.928;6.376;2023-05-10T13:41:22;18.60;99.90
16477;DHT22;8349;50.928;6.376;2023-05-10T13:43:50;18.30;99.90
16477;DHT22;8349;50.928;6.376;2023-05-10T13:46:16;18.40;99.90
16477;DHT22;8349;50.928;6.376;2023-05-10T13:48:43;18.20;99.90
16477;DHT22;8349;50.928;6.376;2023-05-10T13:51:10;18.00;99.90
16477;DHT22;8349;50.928;6.376;2023-05-10T13:53:36;18.10;99.90
16477;DHT22;8349;50.928;6.376;2023-05-10T13:56:03;18.10;99.90
16477;DHT22;8349;50.928;6.376;2023-05-10T13:58:30;18.40;99.90
16477;DHT22;8349;50.928;6.376;2023-05-10T14:00:58;18.80;99.90
16477;DHT22;8349;50.928;6.376;2023-05-10T14:03:25;18.70;99.90
16477;DHT22;8349;50.928;6.376;2023-05-10T14:05:51;18.60;99.90
16477;DHT22;8349;50.928;6.376;2023-05-10T14:08:18;18.50;99.90
16477;DHT22;8349;50.928;6.376;2023-05-10T14:10:45;18.80;99.90
16477;DHT22;8349;50.928;6.376;2023-05-10T14:13:12;19.10;99.90
16477;DHT22;8349;50.928;6.376;2023-05-10T14:15:39;19.10;99.90
16477;DHT22;8349;50.928;6.376;2023-05-10T14:18:07;19.50;99.90
16477;DHT22;8349;50.928;6.376;2023-05-10T14:20:33;19.50;99.90
16477;DHT22;8349;50.928;6.376;2023-05-10T14:23:00;19.50;99.90
16477;DHT22;8349;50.928;6.376;2023-05-10T14:25:27;19.80;99.90
16477;DHT22;8349;50.928;6.376;2023-05-10T14:27:54;20.70;99.90
16477;DHT22;8349;50.928;6.376;2023-05-10T14:30:21;20.60;99.90
16477;DHT22;8349;50.928;6.376;2023-05-10T14:32:48;20.20;99.90
16477;DHT22;8349;50.928;6.376;2023-05-10T14:35:16;19.30;99.90
16477;DHT22;8349;50.928;6.376;2023-05-10T14:37:43;19.10;99.90
16477;DHT22;8349;50.928;6.376;2023-05-10T14:40:10;18.60;99.90
16477;DHT22;8349;50.928;6.376;2023-05-10T14:42:37;18.50;99.90
16477;DHT22;8349;50.928;6.376;2023-05-10T14:45:04;18.60;99.90
16477;DHT22;8349;50.928;6.376;2023-05-10T14:47:31;19.00;99.90
16477;DHT22;8349;50.928;6.376;2023-05-10T14:49:58;18.80;99.90
16477;DHT22;8349;50.928;6.376;2023-05-10T14:52:26;19.30;99.90
16477;DHT22;8349;50.928;6.376;2023-05-10T14:54:53;19.30;99.90
16477;DHT22;8349;50.928;6.376;2023-05-10T14:57:20;19.20;99.90
16477;DHT22;8349;50.928;6.376;2023-05-10T14:59:47;18.90;99.90
16477;DHT22;8349;50.928;6.376;2023-05-10T15:02:13;18.50;99.90
16477;DHT22;8349;50.928;6.376;2023-05-10T15:04:40;18.40;99.90
16477;DHT22;8349;50.928;6.376;2023-05-10T15:07:07;18.10;99.90
16477;DHT22;8349;50.928;6.376;2023-05-10T15:09:35;17.90;99.90
16477;DHT22;8349;50.928;6.376;2023-05-10T15:12:02;17.70;99.90
16477;DHT22;8349;50.928;6.376;2023-05-10T15:14:28;17.40;99.90
16477;DHT22;8349;50.928;6.376;2023-05-10T15:16:55;17.60;99.90
16477;DHT22;8349;50.928;6.376;2023-05-10T15:19:22;17.50;99.90
16477;DHT22;8349;50.928;6.376;2023-05-10T15:21:49;17.50;99.90
16477;DHT22;8349;50.928;6.376;2023-05-10T15:24:16;17.30;99.90
16477;DHT22;8349;50.928;6.376;2023-05-10T15:26:44;17.40;99.90
16477;DHT22;8349;50.928;6.376;2023-05-10T15:29:11;17.30;99.90
16477;DHT22;8349;50.928;6.376;2023-05-10T15:31:37;17.30;99.90
16477;DHT22;8349;50.928;6.376;2023-05-10T15:34:04;16.90;99.90
16477;DHT22;8349;50.928;6.376;2023-05-10T15:36:31;16.90;99.90
16477;DHT22;8349;50.928;6.376;2023-05-10T15:38:58;16.80;99.90
16477;DHT22;8349;50.928;6.376;2023-05-10T15:41:25;16.70;99.90
16477;DHT22;8349;50.928;6.376;2023-05-10T15:43:53;16.60;99.90
16477;DHT22;8349;50.928;6.376;2023-05-10T15:46:20;16.50;99.90
16477;DHT22;8349;50.928;6.376;2023-05-10T15:48:47;16.30;99.90
16477;DHT22;8349;50.928;6.376;2023-05-10T15:51:14;16.50;99.90
16477;DHT22;8349;50.928;6.376;2023-05-10T15:53:41;16.70;99.90
16477;DHT22;8349;50.928;6.376;2023-05-10T15:56:08;16.40;99.90
16477;DHT22;8349;50.928;6.376;2023-05-10T15:58:34;16.50;99.90
16477;DHT22;8349;50.928;6.376;2023-05-10T16:01:03;16.50;99.90
16477;DHT22;8349;50.928;6.376;2023-05-10T16:03:30;16.50;99.90
16477;DHT22;8349;50.928;6.376;2023-05-10T16:05:57;16.40;99.90
16477;DHT22;8349;50.928;6.376;2023-05-10T16:08:23;16.20;99.90